sensor_id;sensor_type;location;lat;lon;timestamp;P1;durP1;ratioP1;P2;durP2;ratioP2
26337;SDS011;14050;50.950;4.460;2023-03-21T00:01:34;21.52;;;8.13;;
26337;SDS011;14050;50.950;4.460;2023-03-21T00:06:35;17.15;;;7.70;;
26337;SDS011;14050;50.950;4.460;2023-03-21T00:11:35;19.03;;;8.53;;
26337;SDS011;14050;50.950;4.460;2023-03-21T00:16:36;16.77;;;7.80;;
26337;SDS011;14050;50.950;4.460;2023-03-21T00:21:37;14.55;;;6.85;;
26337;SDS011;14050;50.950;4.460;2023-03-21T00:26:37;19.17;;;6.68;;
26337;SDS011;14050;50.950;4.460;2023-03-21T00:31:38;20.98;;;7.30;;
26337;SDS011;14050;50.950;4.460;2023-03-21T00:36:38;17.17;;;6.85;;
26337;SDS011;14050;50.950;4.460;2023-03-21T00:41:38;21.23;;;7.82;;
26337;SDS011;14050;50.950;4.460;2023-03-21T00:46:39;17.38;;;6.68;;
26337;SDS011;14050;50.950;4.460;2023-03-21T00:51:39;16.98;;;6.43;;
26337;SDS011;14050;50.950;4.460;2023-03-21T00:56:39;12.95;;;6.43;;
26337;SDS011;14050;50.950;4.460;2023-03-21T01:01:40;20.48;;;7.95;;
26337;SDS011;14050;50.950;4.460;2023-03-21T01:06:41;14.93;;;7.45;;
26337;SDS011;14050;50.950;4.460;2023-03-21T01:11:41;21.17;;;7.65;;
26337;SDS011;14050;50.950;4.460;2023-03-21T01:16:42;15.90;;;6.45;;
26337;SDS011;14050;50.950;4.460;2023-03-21T01:21:42;15.93;;;7.15;;
26337;SDS011;14050;50.950;4.460;2023-03-21T01:26:43;13.50;;;6.75;;
26337;SDS011;14050;50.950;4.460;2023-03-21T01:31:43;13.13;;;6.70;;
26337;SDS011;14050;50.950;4.460;2023-03-21T01:36:43;13.95;;;7.07;;
26337;SDS011;14050;50.950;4.460;2023-03-21T01:41:44;15.32;;;6.75;;
26337;SDS011;14050;50.950;4.460;2023-03-21T01:51:59;20.60;;;6.90;;
26337;SDS011;14050;50.950;4.460;2023-03-21T01:57:01;18.88;;;6.55;;
26337;SDS011;14050;50.950;4.460;2023-03-21T02:02:03;20.25;;;7.25;;
26337;SDS011;14050;50.950;4.460;2023-03-21T02:07:07;19.63;;;7.25;;
26337;SDS011;14050;50.950;4.460;2023-03-21T02:12:08;20.67;;;6.80;;
26337;SDS011;14050;50.950;4.460;2023-03-21T02:17:21;16.60;;;6.75;;
26337;SDS011;14050;50.950;4.460;2023-03-21T02:27:26;19.85;;;6.63;;
26337;SDS011;14050;50.950;4.460;2023-03-21T02:32:33;22.60;;;7.78;;
26337;SDS011;14050;50.950;4.460;2023-03-21T02:37:38;21.77;;;7.63;;
26337;SDS011;14050;50.950;4.460;2023-03-21T02:47:46;20.15;;;6.72;;
26337;SDS011;14050;50.950;4.460;2023-03-21T02:52:48;21.15;;;6.80;;
26337;SDS011;14050;50.950;4.460;2023-03-21T02:57:49;22.08;;;6.28;;
26337;SDS011;14050;50.950;4.460;2023-03-21T03:02:50;19.92;;;6.25;;
26337;SDS011;14050;50.950;4.460;2023-03-21T03:23:47;17.48;;;5.95;;
26337;SDS011;14050;50.950;4.460;2023-03-21T03:28:51;20.40;;;5.70;;
26337;SDS011;14050;50.950;4.460;2023-03-21T03:33:56;13.85;;;4.75;;
26337;SDS011;14050;50.950;4.460;2023-03-21T03:38:59;14.77;;;5.70;;
26337;SDS011;14050;50.950;4.460;2023-03-21T03:44:03;17.15;;;5.55;;
26337;SDS011;14050;50.950;4.460;2023-03-21T03:49:11;17.05;;;5.28;;
26337;SDS011;14050;50.950;4.460;2023-03-21T03:54:14;18.75;;;4.90;;
26337;SDS011;14050;50.950;4.460;2023-03-21T03:59:17;12.65;;;4.55;;
26337;SDS011;14050;50.950;4.460;2023-03-21T04:04:24;15.80;;;4.43;;
26337;SDS011;14050;50.950;4.460;2023-03-21T04:09:28;17.02;;;5.05;;
26337;SDS011;14050;50.950;4.460;2023-03-21T04:14:29;14.90;;;4.78;;
26337;SDS011;14050;50.950;4.460;2023-03-21T04:19:29;12.73;;;4.68;;
26337;SDS011;14050;50.950;4.460;2023-03-21T04:24:30;18.92;;;4.80;;
26337;SDS011;14050;50.950;4.460;2023-03-21T04:29:32;15.75;;;5.13;;
26337;SDS011;14050;50.950;4.460;2023-03-21T04:34:33;21.90;;;4.93;;
26337;SDS011;14050;50.950;4.460;2023-03-21T04:39:39;15.07;;;5.25;;
26337;SDS011;14050;50.950;4.460;2023-03-21T04:44:39;22.42;;;5.72;;
26337;SDS011;14050;50.950;4.460;2023-03-21T04:49:43;23.65;;;5.78;;
26337;SDS011;14050;50.950;4.460;2023-03-21T04:54:43;16.83;;;5.25;;
26337;SDS011;14050;50.950;4.460;2023-03-21T04:59:43;20.95;;;6.05;;
26337;SDS011;14050;50.950;4.460;2023-03-21T05:04:44;21.60;;;6.38;;
26337;SDS011;14050;50.950;4.460;2023-03-21T05:09:45;24.75;;;6.63;;
26337;SDS011;14050;50.950;4.460;2023-03-21T05:14:45;18.05;;;6.63;;
26337;SDS011;14050;50.950;4.460;2023-03-21T05:19:46;18.58;;;6.85;;
26337;SDS011;14050;50.950;4.460;2023-03-21T05:24:47;21.58;;;7.05;;
26337;SDS011;14050;50.950;4.460;2023-03-21T05:29:49;18.88;;;6.97;;
26337;SDS011;14050;50.950;4.460;2023-03-21T05:34:49;18.48;;;7.28;;
26337;SDS011;14050;50.950;4.460;2023-03-21T05:39:49;23.80;;;8.00;;
26337;SDS011;14050;50.950;4.460;2023-03-21T05:44:50;21.60;;;7.50;;
26337;SDS011;14050;50.950;4.460;2023-03-21T05:49:50;25.42;;;7.65;;
26337;SDS011;14050;50.950;4.460;2023-03-21T05:54:51;23.10;;;7.13;;
26337;SDS011;14050;50.950;4.460;2023-03-21T05:59:51;22.27;;;7.40;;
26337;SDS011;14050;50.950;4.460;2023-03-21T06:04:52;23.70;;;7.40;;
26337;SDS011;14050;50.950;4.460;2023-03-21T06:09:52;19.67;;;7.18;;
26337;SDS011;14050;50.950;4.460;2023-03-21T06:14:52;20.63;;;7.57;;
26337;SDS011;14050;50.950;4.460;2023-03-21T06:19:52;19.05;;;7.82;;
26337;SDS011;14050;50.950;4.460;2023-03-21T06:24:53;27.92;;;8.38;;
26337;SDS011;14050;50.950;4.460;2023-03-21T06:29:53;20.17;;;7.70;;
26337;SDS011;14050;50.950;4.460;2023-03-21T06:34:53;27.13;;;8.98;;
26337;SDS011;14050;50.950;4.460;2023-03-21T06:39:54;24.85;;;8.77;;
26337;SDS011;14050;50.950;4.460;2023-03-21T06:44:54;20.80;;;8.63;;
26337;SDS011;14050;50.950;4.460;2023-03-21T06:49:54;20.90;;;9.18;;
26337;SDS011;14050;50.950;4.460;2023-03-21T06:54:55;21.48;;;8.75;;
26337;SDS011;14050;50.950;4.460;2023-03-21T06:59:55;20.58;;;8.07;;
26337;SDS011;14050;50.950;4.460;2023-03-21T07:04:55;23.97;;;8.73;;
26337;SDS011;14050;50.950;4.460;2023-03-21T07:09:56;17.13;;;7.75;;
26337;SDS011;14050;50.950;4.460;2023-03-21T07:14:57;19.83;;;8.02;;
26337;SDS011;14050;50.950;4.460;2023-03-21T07:19:58;26.83;;;7.40;;
26337;SDS011;14050;50.950;4.460;2023-03-21T07:24:58;20.08;;;6.75;;
26337;SDS011;14050;50.950;4.460;2023-03-21T07:29:58;16.63;;;5.45;;
26337;SDS011;14050;50.950;4.460;2023-03-21T07:34:59;13.25;;;5.70;;
26337;SDS011;14050;50.950;4.460;2023-03-21T07:40:00;14.13;;;5.55;;
26337;SDS011;14050;50.950;4.460;2023-03-21T07:45:00;19.30;;;5.95;;
26337;SDS011;14050;50.950;4.460;2023-03-21T07:50:01;20.42;;;6.18;;
26337;SDS011;14050;50.950;4.460;2023-03-21T07:55:04;17.23;;;5.93;;
26337;SDS011;14050;50.950;4.460;2023-03-21T08:00:04;14.40;;;4.97;;
26337;SDS011;14050;50.950;4.460;2023-03-21T08:05:06;14.65;;;4.70;;
26337;SDS011;14050;50.950;4.460;2023-03-21T08:10:06;10.27;;;4.15;;
26337;SDS011;14050;50.950;4.460;2023-03-21T08:15:07;14.32;;;3.75;;
26337;SDS011;14050;50.950;4.460;2023-03-21T08:20:08;11.55;;;3.38;;
26337;SDS011;14050;50.950;4.460;2023-03-21T08:25:09;8.88;;;3.40;;
26337;SDS011;14050;50.950;4.460;2023-03-21T08:30:14;6.15;;;3.30;;
26337;SDS011;14050;50.950;4.460;2023-03-21T08:35:16;10.90;;;3.50;;
26337;SDS011;14050;50.950;4.460;2023-03-21T08:40:17;13.57;;;3.63;;
26337;SDS011;14050;50.950;4.460;2023-03-21T08:45:18;11.80;;;4.45;;
26337;SDS011;14050;50.950;4.460;2023-03-21T08:50:19;10.03;;;3.80;;
26337;SDS011;14050;50.950;4.460;2023-03-21T08:55:20;10.77;;;4.47;;
26337;SDS011;14050;50.950;4.460;2023-03-21T09:00:20;14.55;;;5.05;;
26337;SDS011;14050;50.950;4.460;2023-03-21T09:05:21;14.55;;;4.88;;
26337;SDS011;14050;50.950;4.460;2023-03-21T09:10:24;12.50;;;5.15;;
26337;SDS011;14050;50.950;4.460;2023-03-21T09:15:25;11.63;;;4.65;;
26337;SDS011;14050;50.950;4.460;2023-03-21T09:20:27;11.35;;;4.28;;
26337;SDS011;14050;50.950;4.460;2023-03-21T09:25:31;10.40;;;4.15;;
26337;SDS011;14050;50.950;4.460;2023-03-21T09:30:33;15.98;;;4.35;;
26337;SDS011;14050;50.950;4.460;2023-03-21T09:35:34;11.38;;;4.05;;
26337;SDS011;14050;50.950;4.460;2023-03-21T09:40:42;16.70;;;4.28;;
26337;SDS011;14050;50.950;4.460;2023-03-21T09:50:45;11.15;;;3.90;;
26337;SDS011;14050;50.950;4.460;2023-03-21T09:55:45;13.20;;;3.78;;
26337;SDS011;14050;50.950;4.460;2023-03-21T10:00:47;12.35;;;3.95;;
26337;SDS011;14050;50.950;4.460;2023-03-21T10:05:52;16.45;;;3.65;;
26337;SDS011;14050;50.950;4.460;2023-03-21T10:10:58;11.90;;;4.10;;
26337;SDS011;14050;50.950;4.460;2023-03-21T10:16:01;11.55;;;3.63;;
26337;SDS011;14050;50.950;4.460;2023-03-21T10:21:06;13.48;;;5.07;;
26337;SDS011;14050;50.950;4.460;2023-03-21T10:26:06;12.30;;;3.90;;
26337;SDS011;14050;50.950;4.460;2023-03-21T10:31:07;11.35;;;3.63;;
26337;SDS011;14050;50.950;4.460;2023-03-21T10:36:19;13.45;;;3.88;;
26337;SDS011;14050;50.950;4.460;2023-03-21T10:41:21;15.23;;;3.92;;
26337;SDS011;14050;50.950;4.460;2023-03-21T10:46:21;16.05;;;3.90;;
26337;SDS011;14050;50.950;4.460;2023-03-21T10:51:26;18.83;;;4.22;;
26337;SDS011;14050;50.950;4.460;2023-03-21T10:56:34;16.10;;;4.20;;
26337;SDS011;14050;50.950;4.460;2023-03-21T11:01:36;13.20;;;4.23;;
26337;SDS011;14050;50.950;4.460;2023-03-21T11:06:38;17.20;;;4.50;;
26337;SDS011;14050;50.950;4.460;2023-03-21T11:11:42;18.10;;;4.53;;
26337;SDS011;14050;50.950;4.460;2023-03-21T11:16:47;11.73;;;4.60;;
26337;SDS011;14050;50.950;4.460;2023-03-21T11:21:48;15.77;;;4.78;;
26337;SDS011;14050;50.950;4.460;2023-03-21T11:26:49;14.77;;;4.70;;
26337;SDS011;14050;50.950;4.460;2023-03-21T11:31:50;12.63;;;4.65;;
26337;SDS011;14050;50.950;4.460;2023-03-21T11:36:51;12.63;;;4.30;;
26337;SDS011;14050;50.950;4.460;2023-03-21T11:41:52;12.60;;;4.32;;
26337;SDS011;14050;50.950;4.460;2023-03-21T11:46:52;19.77;;;4.28;;
26337;SDS011;14050;50.950;4.460;2023-03-21T11:56:59;9.27;;;3.47;;
26337;SDS011;14050;50.950;4.460;2023-03-21T12:22:25;16.42;;;4.72;;
26337;SDS011;14050;50.950;4.460;2023-03-21T12:32:31;9.05;;;4.00;;
26337;SDS011;14050;50.950;4.460;2023-03-21T12:37:51;22.92;;;5.15;;
26337;SDS011;14050;50.950;4.460;2023-03-21T12:47:59;8.98;;;4.50;;
26337;SDS011;14050;50.950;4.460;2023-03-21T12:53:13;12.93;;;4.18;;
26337;SDS011;14050;50.950;4.460;2023-03-21T12:58:18;10.10;;;4.07;;
26337;SDS011;14050;50.950;4.460;2023-03-21T13:03:20;6.25;;;3.33;;
26337;SDS011;14050;50.950;4.460;2023-03-21T13:08:27;8.48;;;4.15;;
26337;SDS011;14050;50.950;4.460;2023-03-21T13:24:02;7.97;;;3.95;;
26337;SDS011;14050;50.950;4.460;2023-03-21T13:29:12;14.75;;;3.90;;
26337;SDS011;14050;50.950;4.460;2023-03-21T13:34:13;11.02;;;3.72;;
26337;SDS011;14050;50.950;4.460;2023-03-21T13:39:23;7.23;;;3.83;;
26337;SDS011;14050;50.950;4.460;2023-03-21T13:44:30;9.98;;;3.90;;
26337;SDS011;14050;50.950;4.460;2023-03-21T14:04:37;9.90;;;3.60;;
26337;SDS011;14050;50.950;4.460;2023-03-21T14:09:41;8.93;;;3.78;;
26337;SDS011;14050;50.950;4.460;2023-03-21T14:14:44;9.05;;;3.42;;
26337;SDS011;14050;50.950;4.460;2023-03-21T14:19:45;9.93;;;4.10;;
26337;SDS011;14050;50.950;4.460;2023-03-21T14:24:55;9.15;;;4.00;;
26337;SDS011;14050;50.950;4.460;2023-03-21T14:29:56;14.73;;;4.28;;
26337;SDS011;14050;50.950;4.460;2023-03-21T14:34:58;7.78;;;4.40;;
26337;SDS011;14050;50.950;4.460;2023-03-21T14:40:00;9.38;;;4.47;;
26337;SDS011;14050;50.950;4.460;2023-03-21T14:45:10;11.95;;;5.28;;
26337;SDS011;14050;50.950;4.460;2023-03-21T14:50:13;9.75;;;4.20;;
26337;SDS011;14050;50.950;4.460;2023-03-21T14:55:14;11.88;;;4.85;;
26337;SDS011;14050;50.950;4.460;2023-03-21T15:00:27;12.30;;;4.43;;
26337;SDS011;14050;50.950;4.460;2023-03-21T15:05:29;7.53;;;3.42;;
26337;SDS011;14050;50.950;4.460;2023-03-21T15:10:30;6.38;;;3.63;;
26337;SDS011;14050;50.950;4.460;2023-03-21T15:15:31;6.13;;;3.27;;
26337;SDS011;14050;50.950;4.460;2023-03-21T15:20:33;6.63;;;3.40;;
26337;SDS011;14050;50.950;4.460;2023-03-21T15:25:34;5.90;;;3.10;;
26337;SDS011;14050;50.950;4.460;2023-03-21T15:30:35;9.45;;;3.60;;
26337;SDS011;14050;50.950;4.460;2023-03-21T15:35:39;4.57;;;3.53;;
26337;SDS011;14050;50.950;4.460;2023-03-21T15:40:40;6.15;;;3.83;;
26337;SDS011;14050;50.950;4.460;2023-03-21T15:45:53;10.70;;;4.60;;
26337;SDS011;14050;50.950;4.460;2023-03-21T15:55:57;10.90;;;5.72;;
26337;SDS011;14050;50.950;4.460;2023-03-21T16:01:05;15.73;;;6.50;;
26337;SDS011;14050;50.950;4.460;2023-03-21T16:11:23;8.05;;;4.32;;
26337;SDS011;14050;50.950;4.460;2023-03-21T16:16:27;12.13;;;5.30;;
26337;SDS011;14050;50.950;4.460;2023-03-21T16:21:29;11.10;;;5.20;;
26337;SDS011;14050;50.950;4.460;2023-03-21T16:26:31;8.30;;;4.93;;
26337;SDS011;14050;50.950;4.460;2023-03-21T16:31:32;8.23;;;4.90;;
26337;SDS011;14050;50.950;4.460;2023-03-21T16:36:34;9.45;;;5.00;;
26337;SDS011;14050;50.950;4.460;2023-03-21T16:41:36;9.50;;;4.82;;
26337;SDS011;14050;50.950;4.460;2023-03-21T16:46:36;12.63;;;5.85;;
26337;SDS011;14050;50.950;4.460;2023-03-21T16:51:36;10.65;;;5.25;;
26337;SDS011;14050;50.950;4.460;2023-03-21T16:56:41;10.73;;;5.93;;
26337;SDS011;14050;50.950;4.460;2023-03-21T17:01:42;9.70;;;5.80;;
26337;SDS011;14050;50.950;4.460;2023-03-21T17:06:48;12.02;;;6.85;;
26337;SDS011;14050;50.950;4.460;2023-03-21T17:11:50;9.10;;;6.45;;
26337;SDS011;14050;50.950;4.460;2023-03-21T17:16:50;9.17;;;6.00;;
26337;SDS011;14050;50.950;4.460;2023-03-21T17:21:50;10.95;;;6.50;;
26337;SDS011;14050;50.950;4.460;2023-03-21T17:26:51;9.43;;;5.17;;
26337;SDS011;14050;50.950;4.460;2023-03-21T17:31:51;8.80;;;5.47;;
26337;SDS011;14050;50.950;4.460;2023-03-21T17:36:51;11.70;;;5.18;;
26337;SDS011;14050;50.950;4.460;2023-03-21T17:41:52;9.13;;;4.50;;
26337;SDS011;14050;50.950;4.460;2023-03-21T17:46:52;8.55;;;4.07;;
26337;SDS011;14050;50.950;4.460;2023-03-21T17:51:53;9.35;;;4.68;;
26337;SDS011;14050;50.950;4.460;2023-03-21T17:56:53;6.07;;;4.57;;
26337;SDS011;14050;50.950;4.460;2023-03-21T18:01:55;10.50;;;4.38;;
26337;SDS011;14050;50.950;4.460;2023-03-21T18:06:55;9.70;;;4.90;;
26337;SDS011;14050;50.950;4.460;2023-03-21T18:11:58;10.00;;;5.03;;
26337;SDS011;14050;50.950;4.460;2023-03-21T18:16:58;13.77;;;7.28;;
26337;SDS011;14050;50.950;4.460;2023-03-21T18:21:58;17.02;;;9.73;;
26337;SDS011;14050;50.950;4.460;2023-03-21T18:26:59;23.87;;;11.00;;
26337;SDS011;14050;50.950;4.460;2023-03-21T18:31:59;18.37;;;11.00;;
26337;SDS011;14050;50.950;4.460;2023-03-21T18:36:59;17.98;;;11.40;;
26337;SDS011;14050;50.950;4.460;2023-03-21T18:42:00;17.43;;;10.37;;
26337;SDS011;14050;50.950;4.460;2023-03-21T18:47:00;14.73;;;9.40;;
26337;SDS011;14050;50.950;4.460;2023-03-21T18:52:01;15.63;;;8.83;;
26337;SDS011;14050;50.950;4.460;2023-03-21T18:57:05;13.50;;;8.27;;
26337;SDS011;14050;50.950;4.460;2023-03-21T19:02:05;12.00;;;7.47;;
26337;SDS011;14050;50.950;4.460;2023-03-21T19:07:06;14.20;;;7.10;;
26337;SDS011;14050;50.950;4.460;2023-03-21T19:12:07;10.68;;;7.00;;
26337;SDS011;14050;50.950;4.460;2023-03-21T19:17:09;11.05;;;8.10;;
26337;SDS011;14050;50.950;4.460;2023-03-21T19:22:09;18.15;;;11.07;;
26337;SDS011;14050;50.950;4.460;2023-03-21T19:27:10;16.00;;;7.85;;
26337;SDS011;14050;50.950;4.460;2023-03-21T19:32:10;13.60;;;6.68;;
26337;SDS011;14050;50.950;4.460;2023-03-21T19:37:11;16.40;;;7.53;;
26337;SDS011;14050;50.950;4.460;2023-03-21T19:42:11;10.70;;;6.15;;
26337;SDS011;14050;50.950;4.460;2023-03-21T19:47:11;13.98;;;7.55;;
26337;SDS011;14050;50.950;4.460;2023-03-21T19:52:11;15.20;;;6.13;;
26337;SDS011;14050;50.950;4.460;2023-03-21T19:57:12;11.88;;;5.97;;
26337;SDS011;14050;50.950;4.460;2023-03-21T20:02:12;13.03;;;5.90;;
26337;SDS011;14050;50.950;4.460;2023-03-21T20:07:13;13.90;;;6.35;;
26337;SDS011;14050;50.950;4.460;2023-03-21T20:12:13;13.20;;;6.70;;
26337;SDS011;14050;50.950;4.460;2023-03-21T20:17:13;12.63;;;7.25;;
26337;SDS011;14050;50.950;4.460;2023-03-21T20:22:13;15.55;;;6.55;;
26337;SDS011;14050;50.950;4.460;2023-03-21T20:27:14;13.23;;;6.63;;
26337;SDS011;14050;50.950;4.460;2023-03-21T20:32:14;9.68;;;4.85;;
26337;SDS011;14050;50.950;4.460;2023-03-21T20:37:15;13.75;;;4.72;;
26337;SDS011;14050;50.950;4.460;2023-03-21T20:42:15;10.30;;;3.83;;
26337;SDS011;14050;50.950;4.460;2023-03-21T20:47:15;10.30;;;3.67;;
26337;SDS011;14050;50.950;4.460;2023-03-21T20:52:15;8.77;;;3.15;;
26337;SDS011;14050;50.950;4.460;2023-03-21T20:57:16;13.40;;;3.00;;
26337;SDS011;14050;50.950;4.460;2023-03-21T21:02:17;12.20;;;3.60;;
26337;SDS011;14050;50.950;4.460;2023-03-21T21:07:20;13.00;;;2.97;;
26337;SDS011;14050;50.950;4.460;2023-03-21T21:12:21;12.57;;;2.55;;
26337;SDS011;14050;50.950;4.460;2023-03-21T21:17:26;14.85;;;2.85;;
26337;SDS011;14050;50.950;4.460;2023-03-21T21:22:29;12.20;;;2.83;;
26337;SDS011;14050;50.950;4.460;2023-03-21T21:27:30;8.45;;;2.67;;
26337;SDS011;14050;50.950;4.460;2023-03-21T21:32:30;13.27;;;2.70;;
26337;SDS011;14050;50.950;4.460;2023-03-21T21:37:30;13.88;;;2.22;;
26337;SDS011;14050;50.950;4.460;2023-03-21T21:42:32;14.85;;;3.30;;
26337;SDS011;14050;50.950;4.460;2023-03-21T21:47:33;15.20;;;3.47;;
26337;SDS011;14050;50.950;4.460;2023-03-21T21:52:33;16.27;;;4.30;;
26337;SDS011;14050;50.950;4.460;2023-03-21T21:57:33;12.95;;;3.78;;
26337;SDS011;14050;50.950;4.460;2023-03-21T22:02:34;11.20;;;3.60;;
26337;SDS011;14050;50.950;4.460;2023-03-21T22:07:35;15.38;;;4.05;;
26337;SDS011;14050;50.950;4.460;2023-03-21T22:12:36;14.32;;;4.60;;
26337;SDS011;14050;50.950;4.460;2023-03-21T22:17:37;11.88;;;3.50;;
26337;SDS011;14050;50.950;4.460;2023-03-21T22:22:37;12.98;;;3.83;;
26337;SDS011;14050;50.950;4.460;2023-03-21T22:27:38;12.00;;;3.20;;
26337;SDS011;14050;50.950;4.460;2023-03-21T22:32:39;12.55;;;3.22;;
26337;SDS011;14050;50.950;4.460;2023-03-21T22:37:40;13.18;;;3.22;;
26337;SDS011;14050;50.950;4.460;2023-03-21T22:42:41;14.05;;;3.35;;
26337;SDS011;14050;50.950;4.460;2023-03-21T22:47:42;15.52;;;3.40;;
26337;SDS011;14050;50.950;4.460;2023-03-21T22:52:42;12.73;;;2.75;;
26337;SDS011;14050;50.950;4.460;2023-03-21T22:57:42;15.82;;;3.30;;
26337;SDS011;14050;50.950;4.460;2023-03-21T23:02:44;17.90;;;3.78;;
26337;SDS011;14050;50.950;4.460;2023-03-21T23:07:44;14.60;;;3.78;;
26337;SDS011;14050;50.950;4.460;2023-03-21T23:12:44;13.93;;;3.50;;
26337;SDS011;14050;50.950;4.460;2023-03-21T23:17:45;15.30;;;3.95;;
26337;SDS011;14050;50.950;4.460;2023-03-21T23:22:47;12.95;;;3.67;;
26337;SDS011;14050;50.950;4.460;2023-03-21T23:27:47;18.73;;;5.15;;
26337;SDS011;14050;50.950;4.460;2023-03-21T23:32:47;14.95;;;5.32;;
26337;SDS011;14050;50.950;4.460;2023-03-21T23:37:47;13.55;;;6.88;;
26337;SDS011;14050;50.950;4.460;2023-03-21T23:42:51;16.92;;;8.32;;
26337;SDS011;14050;50.950;4.460;2023-03-21T23:47:51;19.70;;;9.10;;
26337;SDS011;14050;50.950;4.460;2023-03-21T23:52:52;19.50;;;9.00;;
26337;SDS011;14050;50.950;4.460;2023-03-21T23:57:52;17.10;;;10.13;;
